Bay City, Texas
Current Conditions -  °F | °C
As of 4:35 PM on Wednesday 22 Oct 2014 (Local Time) from KARM Reporting Station
Clear Clear  
Wind Chill: 83°   Ceiling: Unl
Heat Index: 83°   Visibility: 10mi
Dew Point: 54°   Wind: 6mph
Humidity: 36%   Direction: 30°NNE
Pressure: 30.02"   Gusts: NA
Location:  28.98°N, 95.97°W
Report Text: KARM 222135Z AUTO 03005KT 10SM CLR 28/12 A3002 RMK AO2 T02830121
Loading
Personal Weather Stations






























Interactive Weather Map
Tropical Storm Tracking
New forecast layout! Learn more

10-Day Weather Forecast

Advertisements
Track Severe Weather on mobile